Time;durP1;ratioP1;P1;durP2;ratioP2;P2;SDS_P1;SDS_P2;PMS_P1;PMS_P2;Temp;Humidity;BMP_temperature;BMP_pressure;BME280_temperature;BME280_humidity;BME280_pressure;Samples;Min_cycle;Max_cycle;Signal;HPM_P1;HPM_P2
2021/12/11 00:00:40;;;;;;;96.37;52.00;;;;;;;1.42;79.62;100410.73;1783366;80;21027;-84
2021/12/11 00:03:19;;;;;;;99.50;49.80;;;;;;;1.43;79.67;100411.24;1782696;80;21050;-86
2021/12/11 00:05:54;;;;;;;95.30;48.75;;;;;;;1.44;79.55;100414.30;1781630;80;21081;-84
2021/12/11 00:08:24;;;;;;;91.00;48.75;;;;;;;1.44;79.52;100413.89;1782638;80;21062;-84
2021/12/11 00:11:11;;;;;;;84.72;45.03;;;;;;;1.45;79.53;100412.22;1782871;80;21063;-84
2021/12/11 00:13:40;;;;;;;90.75;48.38;;;;;;;1.45;79.47;100416.11;1781854;80;21218;-84
2021/12/11 00:16:09;;;;;;;91.00;47.78;;;;;;;1.44;79.42;100422.09;1782587;80;21744;-83
2021/12/11 00:18:37;;;;;;;87.42;46.33;;;;;;;1.42;79.44;100421.99;1782300;80;21038;-84
2021/12/11 00:21:14;;;;;;;84.70;45.67;;;;;;;1.42;79.42;100423.30;1782950;80;21141;-85
2021/12/11 00:23:52;;;;;;;80.72;43.40;;;;;;;1.43;79.46;100425.50;1782769;80;21146;-84
2021/12/11 00:26:30;;;;;;;87.10;45.73;;;;;;;1.41;79.38;100428.01;1782542;80;21031;-84
2021/12/11 00:28:57;;;;;;;85.65;47.23;;;;;;;1.42;79.42;100430.19;1782089;80;21781;-84
2021/12/11 00:31:23;;;;;;;89.67;47.30;;;;;;;1.41;79.37;100436.17;1783080;80;21572;-84
2021/12/11 00:33:50;;;;;;;81.53;45.85;;;;;;;1.40;79.37;100435.28;1783119;80;21050;-83
2021/12/11 00:36:21;;;;;;;80.42;44.67;;;;;;;1.36;79.32;100438.10;1783176;80;21081;-83
2021/12/11 00:38:49;;;;;;;78.17;40.85;;;;;;;1.33;79.31;100441.84;1783234;80;21070;-83
2021/12/11 00:41:19;;;;;;;73.17;39.63;;;;;;;1.33;79.30;100442.22;1782526;80;22545;-83
2021/12/11 00:43:46;;;;;;;73.75;40.67;;;;;;;1.30;79.25;100446.84;1782913;80;21066;-84
2021/12/11 00:46:17;;;;;;;70.72;39.08;;;;;;;1.30;79.32;100454.62;1782629;80;21113;-85
2021/12/11 00:48:44;;;;;;;73.33;39.63;;;;;;;1.30;79.32;100462.81;1783004;80;21030;-84
2021/12/11 00:51:17;;;;;;;63.92;37.40;;;;;;;1.32;79.32;100467.68;1783096;80;21132;-84
2021/12/11 00:53:55;;;;;;;63.85;35.17;;;;;;;1.30;79.21;100469.30;1782600;80;21842;-84
2021/12/11 00:56:29;;;;;;;64.40;36.05;;;;;;;1.28;79.24;100479.56;1782435;80;21171;-84
2021/12/11 00:59:01;;;;;;;62.35;35.58;;;;;;;1.28;79.28;100473.09;1779826;80;21621;-84
2021/12/11 01:01:33;;;;;;;64.87;37.50;;;;;;;1.32;79.34;100480.23;1780047;80;21047;-84
2021/12/11 01:04:21;;;;;;;57.38;33.60;;;;;;;1.33;79.29;100487.59;1779589;80;21078;-85
2021/12/11 01:06:59;;;;;;;60.92;34.18;;;;;;;1.34;79.27;100486.81;1779924;80;22522;-83
2021/12/11 01:09:39;;;;;;;60.85;35.05;;;;;;;1.31;79.12;100485.32;1779663;80;22364;-83
2021/12/11 01:12:14;;;;;;;63.65;34.73;;;;;;;1.28;79.11;100498.13;1779655;80;21197;-83
2021/12/11 01:15:02;;;;;;;61.20;34.25;;;;;;;1.27;79.18;100495.91;1779164;80;21990;-84
2021/12/11 01:17:46;;;;;;;61.18;34.20;;;;;;;1.25;79.19;100500.12;1779847;80;21050;-83
2021/12/11 01:20:33;;;;;;;61.20;34.70;;;;;;;1.27;79.10;100507.59;1778551;80;22694;-83
2021/12/11 01:22:54;;;;;;;63.13;34.15;;;;;;;1.24;79.09;100510.02;1768219;80;21619;-83
2021/12/11 01:25:28;;;;;;;60.52;34.05;;;;;;;1.21;79.15;100512.42;1779873;80;21145;-83
2021/12/11 01:28:00;;;;;;;58.33;34.23;;;;;;;1.21;79.11;100515.42;1779222;80;21573;-83
2021/12/11 01:30:33;;;;;;;58.33;33.55;;;;;;;1.20;79.11;100515.80;1780055;80;21027;-84
2021/12/11 01:33:00;;;;;;;62.85;34.03;;;;;;;1.18;79.08;100518.71;1780265;80;21761;-85
2021/12/11 01:35:27;;;;;;;62.08;34.03;;;;;;;1.20;79.11;100522.70;1779726;80;21066;-85
2021/12/11 01:38:04;;;;;;;58.58;33.60;;;;;;;1.19;79.12;100515.74;1779703;80;21046;-84
2021/12/11 01:40:33;;;;;;;59.48;33.78;;;;;;;1.18;79.07;100514.83;1752512;80;21446;-84
2021/12/11 01:43:02;;;;;;;63.45;34.78;;;;;;;1.17;79.05;100513.05;1780223;80;21093;-85
2021/12/11 01:45:29;;;;;;;58.05;33.23;;;;;;;1.15;79.05;100519.44;1780009;80;21744;-84
2021/12/11 01:47:58;;;;;;;65.08;33.73;;;;;;;1.17;79.12;100519.53;1750639;80;21117;-84
2021/12/11 01:50:32;;;;;;;58.55;34.35;;;;;;;1.16;79.07;100517.35;1779314;80;21183;-82
2021/12/11 01:53:16;;;;;;;68.20;36.23;;;;;;;1.18;79.08;100521.30;1779716;80;21654;-83
2021/12/11 01:55:49;;;;;;;67.87;36.38;;;;;;;1.21;79.09;100527.09;1779050;80;21509;-83
2021/12/11 01:58:23;;;;;;;64.92;36.30;;;;;;;1.21;79.11;100521.91;1778619;80;21395;-83
2021/12/11 02:00:55;;;;;;;66.50;37.17;;;;;;;1.18;78.99;100523.02;1779352;80;21528;-84
2021/12/11 02:03:26;;;;;;;59.15;35.23;;;;;;;1.16;79.03;100528.09;1779683;80;21101;-85
2021/12/11 02:05:52;;;;;;;62.38;35.95;;;;;;;1.13;79.00;100528.83;1779687;80;21625;-85
2021/12/11 02:08:22;;;;;;;63.13;35.15;;;;;;;1.11;78.98;100538.63;1779780;80;21134;-85
2021/12/11 02:10:56;;;;;;;66.00;36.28;;;;;;;1.10;79.00;100542.89;1750346;80;21751;-85
2021/12/11 02:13:36;;;;;;;;;;;;;;;1.10;79.10;100549.37;1782080;80;21137;-85
2021/12/11 02:15:54;;;;;;;64.22;35.45;;;;;;;1.06;78.99;100547.81;1771882;80;20279;-85
2021/12/11 02:18:35;;;;;;;62.08;36.40;;;;;;;1.02;78.99;100551.03;1774565;80;21107;-85
2021/12/11 02:21:21;;;;;;;65.97;35.95;;;;;;;1.00;79.07;100556.12;1758385;81;21093;-85
2021/12/11 02:24:03;;;;;;;64.25;36.38;;;;;;;0.98;79.08;100544.77;1757625;81;21770;-84
2021/12/11 02:26:31;;;;;;;63.78;35.83;;;;;;;0.97;79.20;100550.74;1751319;81;21063;-82
2021/12/11 02:29:19;;;;;;;66.75;37.13;;;;;;;0.97;79.16;100554.22;1784668;80;21054;-84
2021/12/11 02:32:04;;;;;;;66.77;36.93;;;;;;;0.95;79.15;100554.94;1752444;81;21030;-83
2021/12/11 02:34:45;;;;;;;67.47;36.45;;;;;;;0.93;79.13;100552.25;1752931;81;21058;-83
2021/12/11 02:37:29;;;;;;;70.37;38.08;;;;;;;0.95;79.18;100558.83;1784421;80;22672;-84
2021/12/11 02:39:58;;;;;;;64.75;37.70;;;;;;;0.93;79.22;100560.02;1784360;80;21547;-84
2021/12/11 02:42:39;;;;;;;66.60;37.13;;;;;;;0.94;79.18;100566.13;1784543;80;21065;-84
2021/12/11 02:45:14;;;;;;;66.07;37.65;;;;;;;0.91;79.18;100568.11;1784859;80;21038;-83
2021/12/11 02:47:47;;;;;;;69.92;38.10;;;;;;;0.90;79.18;100565.05;1784995;80;21034;-85
2021/12/11 02:50:22;;;;;;;64.42;37.80;;;;;;;0.90;79.23;100565.42;1785175;80;21782;-84
2021/12/11 02:53:00;;;;;;;65.83;36.35;;;;;;;0.90;79.23;100563.75;1785293;80;21520;-84
2021/12/11 02:55:37;;;;;;;64.40;37.90;;;;;;;0.91;79.22;100565.52;1783937;80;21675;-84
2021/12/11 02:58:15;;;;;;;74.77;41.13;;;;;;;0.93;79.26;100561.73;1784714;80;21015;-84
2021/12/11 03:00:45;;;;;;;73.80;43.17;;;;;;;0.92;79.16;100561.22;1783986;80;21006;-84
2021/12/11 03:03:13;;;;;;;78.70;43.65;;;;;;;0.88;79.05;100565.73;1785315;80;21761;-84
2021/12/11 03:05:56;;;;;;;92.12;53.23;;;;;;;0.83;79.08;100559.40;1784661;80;21003;-83
2021/12/11 03:08:18;;;;;;;79.05;44.35;;;;;;;0.82;79.17;100574.44;1782980;80;20987;-83
2021/12/11 03:10:53;;;;;;;70.90;41.65;;;;;;;0.81;79.25;100574.84;1784703;80;21093;-83
2021/12/11 03:13:18;;;;;;;69.27;42.80;;;;;;;0.82;79.32;100576.62;1783832;80;21078;-82
2021/12/11 03:15:45;;;;;;;69.80;39.88;;;;;;;0.84;79.34;100583.20;1784267;80;21831;-86
2021/12/11 03:18:12;;;;;;;71.17;39.88;;;;;;;0.85;79.37;100582.00;1784623;80;20999;-84
2021/12/11 03:20:38;;;;;;;72.05;40.98;;;;;;;0.88;79.33;100589.05;1784805;80;21078;-83
2021/12/11 03:23:07;;;;;;;69.85;41.42;;;;;;;0.87;79.31;100592.05;1784453;80;21113;-83
2021/12/11 03:25:34;;;;;;;69.75;39.73;;;;;;;0.91;79.39;100593.14;1784556;80;21458;-83
2021/12/11 03:28:02;;;;;;;72.17;40.25;;;;;;;0.90;79.31;100592.25;1784149;80;21699;-83
2021/12/11 03:30:38;;;;;;;71.07;39.60;;;;;;;0.93;79.34;100595.42;1752481;80;21635;-83
2021/12/11 03:33:13;;;;;;;71.40;42.27;;;;;;;0.95;79.35;100596.00;1784787;80;21070;-83
2021/12/11 03:35:41;;;;;;;68.42;40.28;;;;;;;0.99;79.30;100601.38;1783970;80;21054;-84
2021/12/11 03:38:07;;;;;;;66.10;39.20;;;;;;;0.99;79.28;100602.27;1784376;80;21030;-84
2021/12/11 03:40:33;;;;;;;65.67;37.45;;;;;;;1.01;79.27;100613.62;1784806;80;21740;-84
2021/12/11 03:43:01;;;;;;;72.53;39.00;;;;;;;1.02;79.19;100622.31;1785182;80;21093;-84
2021/12/11 03:45:31;;;;;;;65.52;38.95;;;;;;;1.00;79.20;100619.62;1785111;80;21117;-85
2021/12/11 03:48:05;;;;;;;68.30;37.53;;;;;;;1.00;79.23;100621.33;1753477;80;21702;-84
2021/12/11 03:50:31;;;;;;;71.25;40.23;;;;;;;1.01;79.15;100618.80;1784670;80;21582;-84
2021/12/11 03:52:58;;;;;;;67.25;37.35;;;;;;;0.97;79.11;100620.30;1785006;80;21742;-84
2021/12/11 03:55:30;;;;;;;73.10;38.35;;;;;;;0.96;79.05;100617.65;1784361;80;21292;-84
2021/12/11 03:58:01;;;;;;;68.67;38.70;;;;;;;0.92;78.99;100625.63;1783136;80;21591;-83
2021/12/11 04:00:33;;;;;;;66.07;37.50;;;;;;;0.89;79.04;100633.20;1784498;80;21212;-84
2021/12/11 04:03:04;;;;;;;65.87;35.80;;;;;;;0.87;78.99;100633.52;1784890;80;21078;-84
2021/12/11 04:05:28;;;;;;;68.55;37.38;;;;;;;0.85;79.06;100638.13;1783633;80;21848;-84
2021/12/11 04:07:56;;;;;;;64.00;39.50;;;;;;;0.83;78.98;100636.72;1784905;80;21069;-84
2021/12/11 04:10:27;;;;;;;66.60;37.33;;;;;;;0.80;79.05;100640.41;1784689;80;21216;-84
2021/12/11 04:12:52;;;;;;;64.55;37.95;;;;;;;0.76;78.99;100636.73;1783867;80;21047;-84
2021/12/11 04:15:18;;;;;;;67.50;37.53;;;;;;;0.67;79.06;100619.72;1784469;80;21192;-83
2021/12/11 04:17:45;;;;;;;71.33;39.35;;;;;;;0.75;79.08;100639.22;1784705;80;21829;-84
2021/12/11 04:20:17;;;;;;;69.72;40.73;;;;;;;0.75;79.13;100641.81;1754250;80;21070;-85
2021/12/11 04:22:44;;;;;;;69.17;39.80;;;;;;;0.76;79.21;100643.61;1785034;80;21532;-84
2021/12/11 04:25:17;;;;;;;74.37;41.83;;;;;;;0.76;79.14;100656.56;1785243;80;21058;-83
2021/12/11 04:27:43;;;;;;;72.82;40.35;;;;;;;0.75;79.16;100656.05;1785141;80;21046;-83
2021/12/11 04:30:11;;;;;;;67.00;39.75;;;;;;;0.74;79.14;100652.58;1784758;80;21747;-84
2021/12/11 04:32:38;;;;;;;73.72;40.78;;;;;;;0.76;79.24;100649.69;1785135;80;21337;-84
2021/12/11 04:35:06;;;;;;;63.68;38.92;;;;;;;0.77;79.18;100650.60;1784644;80;21117;-83
2021/12/11 04:37:33;;;;;;;70.12;40.52;;;;;;;0.77;79.19;100648.89;1784307;80;21551;-85
2021/12/11 04:40:08;;;;;;;68.47;39.15;;;;;;;0.77;79.18;100650.19;1784566;80;20995;-84
2021/12/11 04:42:50;;;;;;;69.32;38.95;;;;;;;0.78;79.14;100656.27;1780419;80;21591;-83
2021/12/11 04:45:08;;;;;;;71.22;40.08;;;;;;;0.75;79.00;100656.05;1781786;80;21117;-83
2021/12/11 04:47:44;;;;;;;76.95;42.65;;;;;;;0.73;79.03;100655.98;1784671;80;21228;-83
2021/12/11 04:50:16;;;;;;;77.45;43.28;;;;;;;0.73;79.13;100657.28;1782904;80;21552;-82
2021/12/11 04:52:54;;;;;;;74.53;40.30;;;;;;;0.73;79.04;100666.73;1784344;80;21093;-82
2021/12/11 04:56:35;;;;;;;71.30;41.53;;;;;;;0.70;78.94;100668.73;1782717;80;22568;-83
2021/12/11 04:58:05;;;;;;;89.95;52.80;;;;;;;0.64;78.94;100671.33;1733859;80;21054;-82
2021/12/11 05:05:40;;;;;;;94.90;52.25;;;;;;;0.61;79.12;100669.45;1784825;80;22420;-82
2021/12/11 05:10:27;;;;;;;75.45;44.67;;;;;;;0.56;79.00;100679.53;1784646;80;21050;-82
2021/12/11 05:12:56;;;;;;;94.65;49.05;;;;;;;0.54;79.04;100682.39;1783901;80;21101;-81
2021/12/11 05:15:32;;;;;;;80.25;44.88;;;;;;;0.53;79.02;100687.09;1783757;80;21075;-82
2021/12/11 05:17:59;;;;;;;76.47;43.30;;;;;;;0.52;79.08;100690.47;1784637;80;21070;-82
2021/12/11 05:20:32;;;;;;;76.20;41.95;;;;;;;0.53;79.13;100692.27;1784149;80;22465;-83
2021/12/11 05:22:58;;;;;;;75.83;42.25;;;;;;;0.51;79.09;100691.28;1785194;80;21140;-83
2021/12/11 05:25:25;;;;;;;79.80;43.30;;;;;;;0.50;79.14;100702.42;1784492;80;21568;-80
2021/12/11 05:27:53;;;;;;;83.00;46.65;;;;;;;0.48;79.21;100709.20;1783511;80;22397;-79
2021/12/11 05:30:26;;;;;;;80.42;45.63;;;;;;;0.49;79.19;100705.83;1785211;80;21015;-80
2021/12/11 05:32:54;;;;;;;90.77;47.80;;;;;;;0.47;79.15;100711.69;1782363;80;21786;-80
2021/12/11 05:35:20;;;;;;;85.70;49.18;;;;;;;0.43;79.22;100721.36;1784243;80;21042;-80
2021/12/11 05:37:47;;;;;;;80.25;44.67;;;;;;;0.50;79.38;100725.73;1784748;80;21647;-81
2021/12/11 05:40:19;;;;;;;87.27;46.30;;;;;;;0.51;79.30;100731.83;1784720;80;21038;-80
2021/12/11 05:42:47;;;;;;;82.17;44.70;;;;;;;0.50;79.28;100736.09;1785037;80;21063;-80
2021/12/11 05:45:14;;;;;;;82.15;44.13;;;;;;;0.52;79.33;100742.27;1784408;80;21746;-81
2021/12/11 05:47:40;;;;;;;78.55;43.50;;;;;;;0.55;79.32;100742.88;1784974;80;22354;-81
2021/12/11 05:50:13;;;;;;;76.85;44.25;;;;;;;0.55;79.28;100748.95;1752857;80;21396;-81
2021/12/11 05:52:40;;;;;;;73.45;42.20;;;;;;;0.55;79.29;100742.88;1783696;80;21074;-80
2021/12/11 05:55:15;;;;;;;69.45;40.98;;;;;;;0.55;79.27;100739.88;1785101;80;21844;-80
2021/12/11 05:57:37;;;;;;;69.03;40.10;;;;;;;0.55;79.26;100743.77;1783823;80;21783;-82
2021/12/11 06:00:08;;;;;;;65.72;38.63;;;;;;;0.56;79.26;100738.19;1788642;80;21113;-80
2021/12/11 06:02:35;;;;;;;68.22;40.65;;;;;;;0.55;79.19;100746.77;1790595;80;21124;-80
2021/12/11 06:05:02;;;;;;;68.87;40.35;;;;;;;0.52;79.24;100747.85;1790724;80;21066;-81
2021/12/11 06:07:30;;;;;;;67.22;37.35;;;;;;;0.55;79.33;100756.72;1790150;80;21010;-81
2021/12/11 06:10:01;;;;;;;61.92;38.25;;;;;;;0.47;79.25;100736.29;1790140;80;22560;-81
2021/12/11 06:12:28;;;;;;;72.30;42.35;;;;;;;0.57;79.37;100759.01;1789074;80;21586;-81
2021/12/11 06:14:54;;;;;;;72.92;40.83;;;;;;;0.58;79.29;100767.30;1787340;80;21189;-80
2021/12/11 06:17:26;;;;;;;79.75;44.13;;;;;;;0.58;79.26;100768.59;1789975;80;21602;-80
2021/12/11 06:19:53;;;;;;;79.42;44.13;;;;;;;0.57;79.28;100768.08;1790488;80;21662;-82
2021/12/11 06:22:27;;;;;;;74.75;41.08;;;;;;;0.56;79.17;100777.03;1791146;80;21716;-81
2021/12/11 06:24:53;;;;;;;92.92;53.55;;;;;;;0.52;79.16;100776.34;1791217;80;21050;-81
2021/12/11 06:27:20;;;;;;;97.00;51.50;;;;;;;0.50;79.24;100776.23;1790601;80;21140;-81
2021/12/11 06:29:47;;;;;;;97.82;56.80;;;;;;;0.50;79.28;100777.53;1790628;80;21151;-80
2021/12/11 06:32:14;;;;;;;106.17;58.98;;;;;;;0.51;79.25;100781.93;1790663;80;21132;-80
2021/12/11 06:34:40;;;;;;;93.05;50.88;;;;;;;0.50;79.24;100787.00;1790804;80;22347;-80
2021/12/11 06:37:14;;;;;;;87.75;48.60;;;;;;;0.48;79.27;100791.19;1790656;80;21622;-80
2021/12/11 06:39:40;;;;;;;84.52;46.13;;;;;;;0.48;79.33;100797.66;1791239;80;22204;-82
2021/12/11 06:42:11;;;;;;;77.58;43.83;;;;;;;0.47;79.28;100801.03;1791684;80;21106;-85
2021/12/11 06:44:37;;;;;;;83.58;47.38;;;;;;;0.44;79.25;100795.67;1791372;80;21070;-85
2021/12/11 06:47:08;;;;;;;98.42;53.45;;;;;;;0.44;79.28;100803.03;1790118;80;21204;-87
2021/12/11 06:49:38;;;;;;;110.28;61.48;;;;;;;0.41;79.32;100805.41;1782287;80;21054;-86
2021/12/11 06:52:09;;;;;;;99.77;53.25;;;;;;;0.33;79.38;100791.06;1782745;80;21051;-86
2021/12/11 06:54:42;;;;;;;105.20;55.98;;;;;;;0.41;79.35;100812.28;1782659;80;21146;-86
2021/12/11 06:57:07;;;;;;;96.12;48.87;;;;;;;0.34;79.27;100819.66;1781801;80;21066;-86
2021/12/11 06:59:36;;;;;;;97.25;48.90;;;;;;;0.32;79.32;100834.56;1753148;80;21087;-86
2021/12/11 07:02:13;;;;;;;87.25;46.53;;;;;;;0.30;79.42;100843.92;1782139;80;21297;-86
2021/12/11 07:04:32;;;;;;;104.55;53.13;;;;;;;0.27;79.48;100845.92;1777929;80;21130;-87
2021/12/11 07:06:58;;;;;;;87.45;46.40;;;;;;;0.27;79.51;100850.21;1782516;80;21050;-84
2021/12/11 07:09:33;;;;;;;85.32;46.77;;;;;;;0.25;79.45;100854.39;1782231;80;21050;-86
2021/12/11 07:11:59;;;;;;;103.85;54.30;;;;;;;0.13;79.57;100842.78;1782880;80;21750;-87
2021/12/11 07:14:28;;;;;;;83.97;44.85;;;;;;;0.20;79.64;100867.00;1782626;80;21600;-86
2021/12/11 07:16:55;;;;;;;92.37;49.27;;;;;;;0.21;79.77;100873.99;1754682;80;21093;-90
2021/12/11 07:19:25;;;;;;;87.65;46.68;;;;;;;0.23;79.76;100876.70;1782720;79;21055;-87
2021/12/11 07:21:51;;;;;;;84.77;44.33;;;;;;;0.26;79.89;100878.17;1783084;79;21114;-86
2021/12/11 07:24:30;;;;;;;83.95;44.38;;;;;;;0.29;79.91;100877.98;1782592;80;21791;-84
2021/12/11 07:26:57;;;;;;;84.28;46.00;;;;;;;0.30;79.86;100879.80;1782600;79;21722;-84
2021/12/11 07:29:24;;;;;;;84.10;44.80;;;;;;;0.31;79.84;100879.39;1782218;80;21091;-84
2021/12/11 07:31:50;;;;;;;93.00;48.85;;;;;;;0.31;79.79;100889.75;1781914;80;21131;-82
2021/12/11 07:34:20;;;;;;;88.17;48.17;;;;;;;0.29;79.81;100885.76;1781875;80;21062;-82
2021/12/11 07:36:47;;;;;;;86.55;45.60;;;;;;;0.33;79.94;100897.22;1782246;80;21718;-82
2021/12/11 07:39:15;;;;;;;88.15;45.12;;;;;;;0.35;79.87;100898.22;1782171;80;21412;-81
2021/12/11 07:41:45;;;;;;;86.87;45.20;;;;;;;0.37;79.93;100904.00;1782033;80;21482;-81
2021/12/11 07:44:14;;;;;;;94.72;49.15;;;;;;;0.40;79.98;100905.03;1782138;80;21055;-82
2021/12/11 07:46:43;;;;;;;96.15;46.23;;;;;;;0.43;80.05;100909.09;1753918;80;21054;-82
2021/12/11 07:49:11;;;;;;;91.28;45.03;;;;;;;0.48;79.98;100911.61;1781939;80;21518;-82
2021/12/11 07:51:38;;;;;;;89.87;44.45;;;;;;;0.49;80.05;100906.55;1782201;80;21076;-82
2021/12/11 07:54:06;;;;;;;92.33;46.37;;;;;;;0.54;80.02;100912.91;1782279;80;21495;-82
2021/12/11 07:56:33;;;;;;;86.67;43.23;;;;;;;0.63;80.17;100921.70;1781881;80;21070;-82
2021/12/11 07:59:03;;;;;;;87.20;44.30;;;;;;;0.63;80.03;100910.45;1782340;80;21118;-85
2021/12/11 08:01:33;;;;;;;85.47;44.75;;;;;;;0.73;79.93;100929.32;1776534;80;21779;-85
2021/12/11 08:04:01;;;;;;;91.22;46.80;;;;;;;0.79;80.00;100934.02;1777044;80;21098;-86
2021/12/11 08:06:29;;;;;;;87.72;45.88;;;;;;;0.85;79.86;100940.01;1777035;80;21038;-84
2021/12/11 08:08:56;;;;;;;89.83;47.62;;;;;;;0.83;79.66;100934.72;1777068;80;21070;-88
2021/12/11 08:11:22;;;;;;;90.95;47.05;;;;;;;0.83;79.60;100942.89;1777231;80;21599;-83
2021/12/11 08:13:50;;;;;;;84.75;43.83;;;;;;;0.78;79.66;100935.69;1776988;80;22549;-85
2021/12/11 08:16:21;;;;;;;81.57;43.85;;;;;;;0.88;79.63;100951.48;1776483;80;21334;-84
2021/12/11 08:18:50;;;;;;;81.30;42.65;;;;;;;0.91;79.67;100955.95;1776935;80;21086;-84
2021/12/11 08:21:16;;;;;;;73.70;40.78;;;;;;;0.93;79.63;100956.95;1776436;80;21097;-83
2021/12/11 08:23:46;;;;;;;73.55;40.25;;;;;;;0.96;79.59;100963.65;1776645;80;21051;-80
2021/12/11 08:26:15;;;;;;;72.97;39.00;;;;;;;0.99;79.61;100970.31;1776089;80;24058;-75
2021/12/11 08:28:43;;;;;;;74.97;39.98;;;;;;;1.04;79.50;100966.75;1775846;80;21070;-75
2021/12/11 08:31:09;;;;;;;77.22;40.80;;;;;;;1.04;79.39;100966.75;1776019;80;21596;-78
2021/12/11 08:33:36;;;;;;;80.72;40.55;;;;;;;1.07;79.41;100972.12;1776385;80;21126;-84
2021/12/11 08:36:07;;;;;;;78.33;40.23;;;;;;;1.08;79.36;100976.11;1746030;80;21253;-84
2021/12/11 08:38:32;;;;;;;78.33;41.80;;;;;;;1.15;79.45;100978.73;1775619;80;21846;-84
2021/12/11 08:40:59;;;;;;;78.65;41.40;;;;;;;1.19;79.29;100979.84;1776824;80;21094;-80
2021/12/11 08:43:29;;;;;;;87.35;44.25;;;;;;;1.21;79.33;100979.13;1775937;80;21114;-80
2021/12/11 08:46:08;;;;;;;77.60;42.13;;;;;;;1.30;79.53;100979.73;1776086;80;21078;-80
2021/12/11 08:48:29;;;;;;;79.62;42.33;;;;;;;1.26;78.96;100984.60;1773695;80;21075;-80
2021/12/11 08:51:05;;;;;;;83.37;42.85;;;;;;;1.19;78.85;100978.12;1776283;80;21703;-80
2021/12/11 08:53:32;;;;;;;90.70;49.73;;;;;;;1.15;78.95;100978.33;1775999;80;21062;-79
2021/12/11 08:56:00;;;;;;;90.80;50.52;;;;;;;1.16;78.99;100970.14;1776139;80;21155;-79
2021/12/11 08:58:28;;;;;;;90.03;47.00;;;;;;;1.08;78.94;100956.67;1745026;80;21161;-79
2021/12/11 09:01:00;;;;;;;95.07;46.58;;;;;;;1.22;79.02;100974.83;1775806;80;21621;-79
2021/12/11 09:03:32;;;;;;;80.80;39.80;;;;;;;1.23;78.85;100979.23;1774736;80;21881;-79
2021/12/11 09:06:04;;;;;;;81.78;39.15;;;;;;;1.17;78.59;100973.25;1775990;80;21048;-80
2021/12/11 09:08:36;;;;;;;85.50;44.20;;;;;;;1.14;78.60;100971.73;1776077;80;22246;-79
2021/12/11 09:11:08;;;;;;;96.72;51.58;;;;;;;1.18;78.65;100977.61;1776085;80;21056;-79
2021/12/11 09:13:46;;;;;;;101.53;56.63;;;;;;;1.20;78.74;100981.61;1776081;80;21050;-78
2021/12/11 09:16:27;;;;;;;123.10;73.92;;;;;;;1.24;78.70;100984.53;1775907;80;21759;-79
2021/12/11 09:18:58;;;;;;;108.15;64.70;;;;;;;1.23;78.48;100990.91;1774362;80;21533;-79
2021/12/11 09:21:36;;;;;;;;;;;;;;;1.16;78.54;100987.91;1748130;80;21045;-79
2021/12/11 09:24:20;;;;;;;89.20;41.58;;;;;;;1.22;78.71;100991.69;1745489;80;20251;-79
2021/12/11 09:26:57;;;;;;;87.73;42.80;;;;;;;1.30;78.98;100990.11;1726318;80;21063;-80
2021/12/11 09:29:42;;;;;;;89.03;43.08;;;;;;;1.33;78.59;100988.11;1775130;80;21754;-79
2021/12/11 09:32:14;;;;;;;92.57;44.27;;;;;;;1.40;78.85;100986.42;1775835;80;21313;-79
2021/12/11 09:34:52;;;;;;;94.70;43.68;;;;;;;1.43;78.56;100985.33;1775399;80;21086;-79
2021/12/11 09:37:19;;;;;;;107.10;48.17;;;;;;;1.45;78.60;100988.03;1775717;80;21675;-79
2021/12/11 09:39:53;;;;;;;101.42;48.78;;;;;;;1.46;78.45;100989.81;1776159;80;21058;-79
2021/12/11 09:42:21;;;;;;;102.95;52.05;;;;;;;1.49;78.66;101000.40;1775333;80;21070;-79
2021/12/11 09:45:05;;;;;;;99.35;45.80;;;;;;;1.52;78.61;100997.61;1776150;80;22210;-80
2021/12/11 09:47:40;;;;;;;100.02;47.38;;;;;;;1.53;78.40;100999.80;1775590;80;21070;-79
2021/12/11 09:50:09;;;;;;;100.45;45.10;;;;;;;1.52;78.31;101009.66;1775121;80;21063;-79
2021/12/11 09:52:37;;;;;;;98.25;45.73;;;;;;;1.51;78.45;101003.98;1776644;80;21110;-79
2021/12/11 09:55:15;;;;;;;80.17;42.25;;;;;;;1.55;78.39;100999.49;1776425;80;22464;-79
2021/12/11 09:57:46;;;;;;;93.25;44.83;;;;;;;1.58;78.40;100998.78;1774763;80;21644;-79
2021/12/11 10:00:27;;;;;;;86.17;42.48;;;;;;;1.60;78.39;100996.80;1778481;79;22111;-79
2021/12/11 10:02:54;;;;;;;79.72;41.10;;;;;;;1.60;78.11;100992.03;1793702;79;21360;-79
2021/12/11 10:05:37;;;;;;;86.82;43.33;;;;;;;1.56;77.97;100997.41;1793509;79;21163;-79
2021/12/11 10:08:44;;;;;;;94.35;44.45;;;;;;;1.60;78.18;100992.91;1790751;80;23432;-79
2021/12/11 10:10:44;;;;;;;83.15;42.58;;;;;;;1.64;78.08;100997.91;1742741;81;21086;-79
2021/12/11 10:13:10;;;;;;;77.80;41.30;;;;;;;1.67;78.12;100996.41;1793483;79;21544;-84
2021/12/11 10:15:39;;;;;;;82.20;42.65;;;;;;;1.70;77.92;100995.70;1794041;79;21054;-82
2021/12/11 10:18:10;;;;;;;83.62;41.70;;;;;;;1.61;77.58;100994.69;1793845;79;21341;-83
2021/12/11 10:20:48;;;;;;;72.87;38.10;;;;;;;1.59;77.68;100986.33;1791784;78;21797;-83
2021/12/11 10:23:18;;;;;;;82.60;40.35;;;;;;;1.58;77.62;100989.33;1776527;80;21066;-84
2021/12/11 10:25:46;;;;;;;78.95;39.08;;;;;;;1.49;77.32;100996.51;1793484;79;21113;-83
2021/12/11 10:28:18;;;;;;;79.17;40.78;;;;;;;1.40;77.51;100996.80;1792623;79;21066;-83
2021/12/11 10:30:50;;;;;;;88.90;43.67;;;;;;;1.39;77.54;101003.17;1793276;79;21054;-83
2021/12/11 10:33:18;;;;;;;84.42;42.50;;;;;;;1.35;77.71;101009.47;1792534;79;22615;-84
2021/12/11 10:35:51;;;;;;;80.42;40.43;;;;;;;1.39;77.87;101007.06;1793535;79;21290;-83
2021/12/11 10:38:17;;;;;;;73.37;38.70;;;;;;;1.41;77.79;101011.57;1793236;79;21527;-83
2021/12/11 10:40:47;;;;;;;81.30;41.75;;;;;;;1.46;77.86;101010.56;1793628;79;21074;-84
2021/12/11 10:43:25;;;;;;;81.30;43.00;;;;;;;1.39;77.72;101000.20;1793419;79;21062;-83
2021/12/11 10:45:58;;;;;;;79.95;42.93;;;;;;;1.52;77.89;101016.14;1762552;80;21721;-83
2021/12/11 10:48:29;;;;;;;84.13;44.77;;;;;;;1.60;77.83;101016.67;1765684;79;21670;-83
2021/12/11 10:51:01;;;;;;;77.75;43.98;;;;;;;1.65;77.87;101014.88;1793884;79;21340;-83
2021/12/11 10:53:28;;;;;;;91.40;48.55;;;;;;;1.70;77.60;101019.05;1793520;79;21137;-83
2021/12/11 10:55:56;;;;;;;86.12;46.92;;;;;;;1.70;77.63;101020.34;1793402;79;21568;-90
2021/12/11 10:58:33;;;;;;;87.47;46.53;;;;;;;1.63;77.34;101026.83;1766553;79;21728;-83
2021/12/11 11:01:07;;;;;;;82.70;44.48;;;;;;;1.65;77.54;101038.61;1793086;79;21054;-83
2021/12/11 11:03:36;;;;;;;83.78;42.23;;;;;;;1.64;77.47;101044.20;1792408;79;21072;-83
2021/12/11 11:06:04;;;;;;;84.20;43.73;;;;;;;1.66;77.43;101045.61;1793566;79;21062;-84
2021/12/11 11:08:31;;;;;;;83.42;42.78;;;;;;;1.69;77.49;101053.20;1785675;80;21101;-83
2021/12/11 11:11:03;;;;;;;87.47;47.05;;;;;;;1.69;77.34;101054.49;1786078;80;21717;-83
2021/12/11 11:13:30;;;;;;;89.22;45.85;;;;;;;1.69;77.33;101054.87;1785603;80;21114;-84
2021/12/11 11:15:57;;;;;;;89.67;43.15;;;;;;;1.72;77.32;101057.27;1785872;80;21062;-84
2021/12/11 11:18:25;;;;;;;93.52;49.83;;;;;;;1.73;77.27;101058.19;1785672;80;21082;-83
2021/12/11 11:21:06;;;;;;;96.60;50.35;;;;;;;1.72;77.10;101061.56;1785920;80;20995;-83
2021/12/11 11:23:33;;;;;;;93.25;46.08;;;;;;;1.68;77.04;101064.36;1785885;79;21778;-83
2021/12/11 11:26:02;;;;;;;84.58;43.87;;;;;;;1.66;77.06;101067.25;1785694;79;21069;-83
2021/12/11 11:28:32;;;;;;;72.82;39.83;;;;;;;1.67;77.11;101065.17;1785433;80;21058;-83
2021/12/11 11:31:02;;;;;;;69.95;39.15;;;;;;;1.69;77.03;101069.14;1786122;80;21059;-85
2021/12/11 11:33:29;;;;;;;75.90;41.95;;;;;;;1.71;76.88;101068.88;1786131;80;21106;-86
2021/12/11 11:35:57;;;;;;;81.05;42.95;;;;;;;1.68;76.77;101072.14;1786251;80;21760;-85
2021/12/11 11:38:28;;;;;;;89.32;46.20;;;;;;;1.68;76.66;101069.95;1785725;80;21059;-85
2021/12/11 11:41:00;;;;;;;81.75;43.13;;;;;;;1.65;76.55;101078.45;1785749;80;21074;-85